Main page
METAR-TAF:

METAR-TAF

Airports :

Treviso Airport

Treviso, Italy

latitude: 45-39N, longitude: 012-11E, elevation: 18 m

Current weather observation

The report was made 43 minutes ago, at 12:50 UTC
Wind 5 kt from the South
Temperature 28°C
Humidity 55%
Pressure 1016 hPa
Visibility 10 km or more
Few clouds at a height of 5000 ft

METAR: LIPH 171250Z 19005KT 9999 FEW050 28/18 Q1016

Time: 15:33 (13:33 UTC)

Forecast

The report was made 2 hours and 33 minutes ago, at 11:00 UTC
Forecast valid from 17 at 12 UTC to 18 at 12 UTC
Wind 4 kt from variable directions
Visibility 10 km or more
no clouds below 1500 m and no cumulonimbus

TAF: LIPH 171100Z 1712/1812 VRB04KT CAVOK

Weather observations and forecasts of more than 4000 airports (METAR and TAF reports).

The available stations are represented by yellow and red dots on the map.

Hover mouse over dot to see the name of the station.

Then click to see weather observations and forecasts.

To change the map : click on the green buttons with a black cross to zoom in, on the green button with a dash to zoom out, or on the green arrows for adjacent maps.


METAR-TAF: